Terminal Aerodrome Forecast
Issued by NWS

Home | Current Version | Previous Version | Graphics & Text | Print | Product List | Glossary On
Versions: 1 2 3 4 5 6 7 8 9 10 11 12 13 14 15 16 17 18 19 20 21 22 23 24 25 26 27
530
FTUS43 KBIS 201758 AAA
TAFMOT
TAF AMD
KMOT 201758Z 2018/2118 24025G33KT P6SM FEW120 BKN200
     FM202000 29030G42KT P6SM FEW020
     FM210500 30020G29KT P6SM BKN030
     FM211500 30012G20KT P6SM SCT030=

USA.gov is the U.S. government's official web portal to all federal, state and local government web resources and services.